Date,TemperatureHighF,TemperatureAvgF,TemperatureLowF,DewpointHighF,DewpointAvgF,DewpointLowF,HumidityHigh,HumidityAvg,HumidityLow,PressureMaxIn,PressureMinIn,WindSpeedMaxMPH,WindSpeedAvgMPH,GustSpeedMaxMPH,PrecipitationSumIn
2013-1-1,76.2,66.6,58.1,64.0,58.7,53.0,86,76,65,29.88,29.71,8,0,8,0.00
2013-1-2,78.9,69.2,61.7,66.6,61.2,56.8,87,76,63,29.75,29.64,3,0,3,0.00
2013-1-3,80.4,69.0,61.5,67.7,62.7,57.0,87,81,64,29.81,29.68,10,0,10,0.00
2013-1-4,73.0,68.2,64.7,66.8,63.7,60.8,88,85,80,29.91,29.77,5,0,5,0.00
2013-1-5,76.6,69.6,63.3,69.2,64.4,54.1,88,84,76,29.92,29.83,5,0,5,0.17
2013-1-6,78.6,71.5,64.2,71.9,66.9,60.9,91,85,78,29.87,29.72,3,0,3,0.04
2013-1-7,76.2,70.6,66.7,67.6,65.2,62.9,89,83,74,29.85,29.76,5,0,5,0.00
2013-1-8,79.1,72.2,68.5,70.9,66.9,64.5,89,84,74,29.89,29.77,9,0,9,0.00
2013-1-9,79.1,75.2,69.9,72.8,70.0,66.2,90,84,79,29.96,29.85,9,1,9,0.00
2013-1-10,79.3,74.7,68.9,70.8,66.9,64.6,87,77,66,29.98,29.87,8,1,8,0.00
2013-1-11,79.1,73.2,69.4,69.6,66.0,63.1,85,78,68,29.94,29.83,10,0,10,0.00
2013-1-12,79.8,71.8,64.5,68.7,64.6,60.2,87,78,69,29.86,29.77,5,0,5,0.00
2013-1-13,78.8,72.2,66.5,68.2,64.5,60.8,83,77,69,29.81,29.74,6,0,6,0.00
2013-1-14,78.6,71.2,63.3,68.7,64.0,58.3,86,78,70,29.85,29.79,7,0,7,0.00
2013-1-15,79.1,72.2,64.2,69.2,64.6,59.6,86,77,70,29.81,29.72,7,0,7,0.00
2013-1-16,78.6,71.0,61.5,70.4,64.3,2.3,87,80,6,29.78,29.68,5,1,5,0.00
2013-1-17,82.0,70.6,59.5,70.7,62.7,49.0,88,77,62,29.75,29.58,9,1,9,0.00
2013-1-18,69.0,60.3,49.1,59.7,50.9,40.1,83,71,63,29.91,29.75,6,1,6,0.00
2013-1-19,73.2,68.7,63.5,64.6,60.9,51.0,89,77,51,29.89,29.78,4,0,4,0.04
2013-1-20,66.3,65.2,64.2,63.0,62.1,60.9,90,90,89,29.82,29.74,0,0,0,0.00
2013-1-21,65.3,65.3,65.3,62.3,62.3,62.3,90,90,90,29.82,29.82,0,0,0,0.00
2013-1-22,68.3,64.3,60.9,62.3,56.9,-4.4,90,78,6,29.91,29.70,6,0,6,0.00
2013-1-23,69.9,61.0,54.3,56.5,50.5,44.9,77,68,60,29.99,29.89,7,0,7,0.00
2013-1-24,71.7,60.4,51.4,53.0,48.5,0.0,79,66,48,29.98,29.88,3,0,3,0.00
2013-1-25,74.4,63.0,54.3,58.4,53.1,48.6,84,71,52,29.96,29.84,1,0,1,0.00
2013-1-26,75.5,63.6,53.7,58.6,52.9,47.0,80,69,49,29.93,29.82,2,0,2,0.00
2013-1-27,75.3,65.2,54.5,62.8,56.9,48.8,86,75,61,29.97,29.88,5,0,5,0.00
2013-1-28,78.6,72.0,67.8,68.0,64.7,61.6,84,78,67,30.00,29.90,10,0,10,0.00
2013-1-29,77.9,71.3,66.3,70.1,65.4,61.6,87,82,74,29.92,29.79,9,1,9,0.00
2013-1-30,81.3,72.8,65.4,67.5,64.1,60.8,85,75,59,29.79,29.61,13,2,13,0.00
2013-1-31,70.5,64.0,54.3,65.0,53.3,37.5,87,69,46,29.86,29.58,13,1,13,0.00
2013-2-1,66.9,57.2,48.0,51.5,43.0,35.4,72,59,50,29.97,29.85,86,3,86,0.00
2013-2-2,63.1,51.6,48.9,56.1,44.3,40.1,78,76,71,29.93,29.79,0,0,0,0.00
2013-2-3,69.8,60.0,52.7,54.2,48.5,43.5,80,67,44,29.86,29.73,8,0,8,0.00
2013-2-4,71.7,58.8,47.8,54.2,45.7,40.8,78,63,41,29.80,29.68,6,0,6,0.00
2013-2-5,75.2,61.5,49.2,58.3,49.6,40.9,76,66,50,29.76,29.67,8,0,8,0.00
2013-2-6,77.7,68.1,58.1,65.9,59.2,51.7,84,74,64,29.78,29.68,8,0,8,0.00
2013-2-7,79.8,72.1,62.2,67.3,62.6,56.0,82,72,65,29.75,29.58,10,1,10,0.00
2013-2-8,80.7,71.0,64.5,66.7,62.0,58.1,85,74,53,29.72,29.55,5,0,5,0.00
2013-2-9,72.1,67.1,60.0,61.4,59.0,55.8,87,76,65,29.85,29.71,7,1,7,0.00
2013-2-10,76.2,70.6,66.7,61.4,58.9,56.6,72,67,57,29.94,29.83,86,1,86,0.00
2013-2-11,79.7,70.6,63.6,65.1,61.4,56.6,80,73,61,29.89,29.76,6,0,6,0.00
2013-2-12,77.5,67.7,63.6,67.4,61.4,58.0,84,80,71,29.78,29.61,7,0,7,0.00
2013-2-13,85.8,75.9,68.5,71.7,66.9,63.3,89,75,56,29.66,29.51,7,1,7,0.00
2013-2-14,72.6,66.4,61.5,66.5,61.4,57.6,88,84,77,29.71,29.58,9,1,9,0.00
2013-2-15,64.5,62.6,60.2,59.9,58.5,56.0,88,86,84,29.72,29.61,5,0,5,0.00
2013-2-16,69.9,62.2,53.4,62.0,53.0,39.3,89,73,48,29.74,29.55,8,2,8,0.00
2013-2-17,56.4,49.0,42.0,40.3,29.5,23.6,62,47,33,29.99,29.73,13,1,13,0.00
2013-2-18,68.5,55.2,42.9,51.2,41.1,28.4,72,59,52,30.00,29.88,8,0,8,0.00
2013-2-19,78.9,69.4,56.1,61.6,57.4,47.6,84,66,54,29.89,29.73,3,0,3,0.00
2013-2-20,75.9,66.8,59.9,71.8,59.9,54.1,87,79,67,29.78,29.68,0,0,0,0.00
2013-2-21,80.7,72.7,61.1,76.0,64.3,56.6,87,76,63,29.77,29.68,3,1,3,0.00
2013-2-22,81.1,74.2,66.0,70.2,66.1,60.3,85,77,63,29.76,29.67,6,1,6,0.00
2013-2-23,87.4,76.2,68.7,70.3,66.8,64.3,86,74,53,29.72,29.54,7,0,7,0.00
2013-2-24,86.9,78.5,70.7,71.2,68.3,66.0,85,71,54,29.66,29.55,4,0,32,0.00
2013-2-25,85.6,76.6,70.7,72.7,68.7,54.1,88,78,38,29.58,29.46,8,0,8,0.00
2013-2-26,86.1,80.1,72.5,71.9,69.5,64.4,85,71,61,29.54,29.43,11,2,11,0.00
2013-2-27,78.9,71.1,64.7,66.2,62.2,59.4,84,74,61,29.63,29.53,1,0,1,0.00
2013-2-28,75.5,66.7,57.9,56.5,52.4,50.0,75,61,46,29.67,29.53,0,0,0,0.00
2013-3-1,66.9,60.7,57.3,51.9,47.0,43.1,70,61,46,29.65,29.56,0,0,0,0.00
2013-3-2,59.5,55.2,47.8,42.9,39.6,25.0,66,56,48,29.69,29.61,2,0,2,0.00
2013-3-3,60.6,50.5,42.6,40.8,36.7,-20.0,75,60,45,29.82,29.62,7,0,7,0.00
2013-3-4,62.2,51.1,39.9,40.7,35.5,30.9,73,57,35,29.90,29.79,2,0,2,0.00
2013-3-5,75.9,60.9,45.5,59.6,49.8,38.9,82,68,51,29.84,29.71,6,0,6,0.00
2013-3-6,71.4,62.7,52.8,59.6,46.6,31.9,85,59,27,29.77,29.61,7,0,7,0.00
2013-3-7,68.1,56.3,46.0,51.1,42.6,33.3,74,60,53,29.86,29.74,2,0,2,0.00
2013-3-8,70.3,59.1,48.5,51.8,47.5,43.0,83,67,48,29.88,29.78,1,0,1,0.00
2013-3-9,72.6,62.7,52.1,55.9,51.0,45.8,82,66,53,29.88,29.78,1,0,1,0.00
2013-3-10,76.8,68.2,58.8,58.9,55.3,50.2,78,64,52,29.84,29.75,7,0,7,0.00
2013-3-11,78.6,70.6,62.7,62.6,58.7,54.2,76,66,58,29.79,29.61,11,0,11,0.00
2013-3-12,76.4,70.9,66.0,68.4,62.9,58.5,81,76,70,29.67,29.56,8,0,8,0.00
2013-3-13,71.4,63.9,55.2,59.5,52.1,47.4,80,67,45,29.79,29.65,9,0,9,0.00
2013-3-14,65.8,59.4,50.5,46.8,43.9,39.6,68,57,45,29.89,29.82,7,0,7,0.00
2013-3-15,69.9,58.1,47.4,50.2,45.5,39.7,76,64,47,29.93,29.82,1,0,1,0.00
2013-3-16,77.3,62.4,48.7,56.2,49.4,43.0,83,64,42,29.86,29.73,5,0,5,0.00
2013-3-17,77.5,66.5,53.4,60.7,54.7,0.0,78,66,56,29.83,29.68,6,0,6,0.00
2013-3-18,82.5,72.0,65.4,66.8,62.1,56.9,83,72,58,29.74,29.58,8,0,8,0.00
2013-3-19,82.7,72.2,65.6,68.6,64.0,-2.2,87,76,61,29.68,29.55,4,0,4,0.00
2013-3-20,81.5,71.1,64.0,68.5,61.8,58.1,87,73,55,29.63,29.45,0,0,0,0.00
2013-3-21,71.2,64.6,56.4,59.5,49.8,42.3,81,61,36,29.61,29.50,0,0,0,0.00
2013-3-22,70.8,52.3,50.7,62.0,44.4,43.1,76,74,68,29.67,29.57,0,0,0,0.00
2013-3-23,88.7,76.2,67.8,76.7,66.5,61.1,86,74,54,29.65,29.43,1,0,1,0.00
2013-3-24,88.7,75.9,71.2,72.7,66.6,63.3,85,74,51,29.54,29.30,8,1,8,0.12
2013-3-25,77.5,70.9,60.4,68.9,56.7,38.5,88,64,32,29.66,29.40,2,0,2,0.00
2013-3-26,65.6,58.5,52.8,42.0,37.6,32.6,60,46,32,29.81,29.66,10,0,10,0.00
2013-3-27,64.5,57.7,44.9,44.5,40.6,32.7,66,53,43,29.94,29.84,0,0,0,0.00
2013-3-28,70.1,57.6,46.5,47.7,43.2,39.0,77,60,40,29.95,29.85,0,0,0,0.00
2013-3-29,73.7,61.7,50.5,51.5,47.2,43.2,79,61,40,29.97,29.87,0,0,0,0.00
2013-3-30,77.5,65.4,53.4,56.8,51.7,-11.4,81,62,46,29.93,29.81,6,0,6,0.00
2013-3-31,82.2,69.6,57.2,65.3,57.9,49.7,80,67,51,31.27,29.68,8,0,8,0.00
2013-4-1,85.4,74.4,65.1,68.8,62.8,59.5,86,69,48,29.72,29.58,0,0,0,0.00
2013-4-2,81.8,74.0,65.3,67.2,62.5,59.6,83,68,48,29.74,29.65,0,0,0,0.00
2013-4-3,85.2,75.9,69.8,70.7,66.5,62.6,82,73,61,29.74,29.64,5,0,5,0.00
2013-4-4,77.7,73.0,69.4,71.5,67.2,63.9,86,82,77,29.72,29.57,1,0,1,0.04
2013-4-5,77.7,70.2,65.3,68.6,63.9,59.1,88,81,72,29.62,29.43,0,0,0,0.06
2013-4-6,77.0,68.3,58.1,63.7,58.9,52.5,83,73,58,29.78,29.60,0,0,0,0.00
2013-4-7,78.6,72.2,66.2,63.7,60.5,-0.5,78,67,58,29.82,29.71,0,0,0,0.00
2013-4-8,80.2,71.7,60.9,65.6,61.5,55.4,85,71,60,29.81,29.72,0,0,0,0.00
2013-4-9,82.2,74.5,69.6,68.4,64.5,61.2,81,72,60,29.84,29.73,5,0,5,0.00
2013-4-10,84.7,76.1,68.7,72.1,67.1,0.0,84,74,65,29.79,29.68,6,0,6,0.00
2013-4-11,85.8,78.7,73.2,73.2,70.0,52.0,84,75,32,29.69,29.54,87,1,87,0.00
2013-4-12,89.7,78.4,74.8,73.4,70.6,68.8,86,78,57,29.59,29.50,1,0,1,0.00
2013-4-13,78.6,75.3,73.9,69.6,68.8,67.7,84,80,74,29.65,29.55,0,0,0,0.00
2013-4-14,79.5,74.5,72.6,72.4,70.0,68.2,88,86,76,29.64,29.55,3,0,3,0.00
2013-4-15,85.8,75.7,68.5,74.2,69.1,63.5,85,80,68,29.74,29.60,2,0,2,0.32
2013-4-16,84.9,76.4,71.7,74.9,69.3,64.8,88,79,66,29.81,29.70,86,0,86,0.00
2013-4-17,78.6,71.8,69.6,66.7,64.7,63.9,82,78,67,29.79,29.72,0,0,0,0.00
2013-4-18,88.1,78.2,68.9,72.8,68.5,62.6,84,73,58,29.73,29.64,4,0,4,0.00
2013-4-19,89.0,80.3,75.3,75.1,71.4,69.1,82,75,63,29.71,29.60,7,0,7,0.19
2013-4-20,82.7,74.8,69.2,74.9,68.1,63.6,87,80,70,29.78,29.63,0,0,0,0.02
2013-4-21,87.4,76.0,68.0,74.7,68.7,63.8,87,79,64,29.78,29.66,3,0,3,0.00
2013-4-22,77.9,72.6,70.3,74.1,67.9,65.6,88,85,80,29.73,29.64,0,0,0,0.78
2013-4-23,81.3,73.6,66.5,69.9,64.3,61.2,88,74,56,29.75,29.64,0,0,0,0.00
2013-4-24,85.1,78.9,67.1,67.5,64.3,60.4,81,61,53,29.81,29.74,0,0,0,0.00
2013-4-25,85.8,74.2,67.8,67.6,62.4,59.1,80,67,52,29.86,29.75,0,0,0,0.00
2013-4-26,85.8,76.5,67.4,69.8,64.9,60.1,82,68,56,29.90,29.81,0,0,0,0.00
2013-4-27,86.1,77.7,70.3,69.3,65.2,62.0,80,66,54,29.88,29.77,0,0,0,0.00
2013-4-28,86.5,78.2,71.9,67.2,63.6,60.7,69,61,51,29.80,29.68,3,0,3,0.00
2013-4-29,86.1,78.4,71.7,71.3,66.6,62.2,76,67,58,29.71,29.59,4,0,4,0.00
2013-4-30,83.4,73.5,71.0,73.4,67.5,65.9,87,82,68,29.67,29.60,0,0,0,0.17
2013-5-1,82.2,71.8,69.4,73.0,66.8,65.0,89,84,69,29.68,29.59,0,0,0,0.08
2013-5-2,74.6,71.4,30.2,70.8,67.1,26.2,90,86,84,29.63,29.49,9,0,9,0.08
2013-5-3,86.9,76.1,70.3,73.4,68.6,65.4,87,78,61,29.50,29.33,0,0,0,0.29
2013-5-4,86.7,76.1,67.2,71.2,67.3,62.9,87,75,57,29.45,29.34,0,0,0,0.00
2013-5-5,82.9,74.4,68.1,66.6,59.6,52.0,85,63,36,29.59,29.41,0,0,0,0.00
2013-5-6,82.2,71.8,62.0,66.5,58.5,52.3,80,64,50,29.66,29.57,0,0,0,0.00
2013-5-7,82.9,66.3,58.8,62.4,55.2,51.6,80,68,47,29.72,29.63,0,0,0,0.00
2013-5-8,86.9,74.2,62.4,65.9,61.4,55.9,82,65,48,29.79,29.69,0,0,0,0.00
2013-5-9,87.9,76.4,66.0,70.8,65.1,58.3,79,69,56,29.82,29.74,0,0,0,0.00
2013-5-10,79.3,73.9,71.2,72.6,67.6,65.4,84,81,79,29.80,29.73,0,0,0,0.00
2013-5-11,94.6,83.5,73.7,74.7,71.1,64.0,86,68,49,29.74,29.60,0,0,0,0.12
2013-5-12,89.7,79.5,30.2,76.2,70.4,25.7,86,75,60,29.70,29.61,0,0,0,0.00
2013-5-13,83.6,75.9,71.4,70.9,66.0,58.6,82,72,58,29.78,29.65,0,0,0,0.00
2013-5-14,83.3,75.2,67.8,61.8,57.3,53.7,62,54,45,29.86,29.76,0,0,0,0.00
2013-5-15,85.6,76.1,65.4,65.1,61.0,55.3,80,60,49,29.87,29.77,0,0,0,0.00
2013-5-17,89.2,83.3,74.1,71.7,67.9,0.0,76,61,54,29.76,29.73,3,0,3,0.00
2013-5-18,90.1,80.6,71.2,75.0,69.7,65.1,83,70,60,29.78,29.71,4,0,4,0.00
2013-5-19,88.3,79.3,72.5,74.1,69.4,66.1,82,72,60,29.77,29.67,5,0,5,0.00
2013-5-20,84.2,77.4,73.4,73.0,69.6,67.2,83,77,68,29.75,29.65,1,0,1,0.12
2013-5-21,88.8,78.1,70.8,74.1,69.6,65.4,85,76,59,29.70,29.61,3,0,3,0.57
2013-5-22,83.4,76.9,70.5,74.3,70.3,66.0,88,80,72,29.65,29.57,0,0,0,0.02
2013-5-23,89.7,80.5,71.4,75.9,71.2,67.3,89,74,60,29.67,29.57,0,0,0,0.00
2013-5-24,93.0,83.6,72.1,75.1,70.6,65.9,83,66,45,29.74,29.63,0,0,0,0.00
2013-5-25,88.3,80.2,74.3,71.7,66.6,60.9,81,64,46,29.86,29.72,0,0,0,0.10
2013-5-26,85.1,77.4,67.8,68.5,63.3,57.3,73,62,56,29.87,29.80,0,0,0,0.00
2013-5-27,86.7,78.9,71.4,71.5,66.2,60.1,72,65,60,29.84,29.76,2,0,2,0.00
2013-5-28,87.8,81.4,76.1,74.1,70.9,0.0,78,71,63,29.80,29.73,7,0,7,0.00
2013-5-29,87.6,79.9,74.4,75.3,71.8,68.4,85,76,66,29.79,29.71,6,0,6,0.08
2013-5-30,87.0,80.6,77.0,75.2,71.3,68.2,81,74,64,29.78,29.70,7,0,7,0.18
2013-5-31,88.5,79.0,76.2,75.3,69.2,0.0,78,72,62,29.76,29.70,2,0,2,0.00
2013-6-1,90.5,82.6,76.8,77.0,73.1,70.0,82,73,62,29.72,29.64,2,0,2,0.00
2013-6-2,94.8,83.5,75.7,79.1,73.9,70.6,86,74,60,29.67,29.57,2,0,2,0.00
2013-6-3,92.8,81.4,74.8,77.9,72.9,0.0,86,76,59,29.68,29.57,0,0,0,0.06
2013-6-4,85.2,79.6,75.3,76.7,72.5,70.5,87,79,64,29.71,29.61,0,0,0,0.08
2013-6-5,87.4,80.0,75.5,77.0,73.7,0.0,88,81,70,29.68,29.58,0,0,0,0.00
2013-6-6,82.9,77.7,73.9,77.2,72.7,69.1,89,85,81,29.59,29.45,46,0,46,1.67
2013-6-7,93.0,80.8,73.2,78.7,73.2,69.0,89,79,62,29.64,29.47,0,0,0,0.00
2013-6-8,90.6,80.1,75.3,79.2,73.3,70.5,86,80,65,29.77,29.63,0,0,0,0.00
2013-6-9,91.2,82.4,74.4,77.5,73.5,69.8,88,75,62,29.78,29.71,1,0,1,0.00
2013-6-10,80.4,78.9,77.7,74.2,72.2,71.2,84,80,77,29.76,29.72,0,0,0,0.00
2013-6-11,89.4,82.5,78.6,78.8,74.7,71.4,86,77,69,29.74,0.00,2,0,2,0.00
2013-6-12,92.8,82.9,75.0,80.2,74.7,25.4,89,77,38,29.74,29.69,0,0,0,0.00
2013-6-14,94.8,88.1,78.6,76.7,74.3,71.7,86,65,53,29.60,29.51,0,0,0,0.00
2013-6-15,94.4,84.3,75.9,78.4,73.9,69.9,85,72,57,29.73,29.58,0,0,0,0.00
2013-6-16,93.0,85.2,78.6,78.6,74.9,71.6,81,72,61,29.75,29.69,2,0,2,0.00
2013-6-17,95.9,86.1,77.1,80.4,75.3,71.4,84,71,58,29.74,29.65,0,0,0,0.00
2013-6-18,97.8,88.3,78.6,79.7,75.5,72.5,84,67,53,29.73,29.63,6,0,6,0.00
2013-6-19,93.7,84.1,76.2,78.6,73.2,68.0,81,70,58,29.72,29.63,8,0,8,0.04
2013-6-20,95.1,79.6,76.2,79.0,71.0,68.7,84,75,58,29.76,29.68,0,0,0,0.02
2013-6-21,90.5,77.9,73.5,78.8,72.0,67.8,88,82,61,29.81,29.69,5,0,5,0.14
2013-6-22,92.8,82.3,72.3,77.9,73.0,68.4,89,75,58,29.78,29.71,0,0,0,0.00
2013-6-23,92.4,83.5,75.9,77.5,73.3,69.2,84,72,61,29.81,29.72,3,0,3,0.00
2013-6-24,93.9,81.8,76.1,78.0,73.2,70.4,87,76,56,29.85,29.75,1,0,1,0.00
2013-6-25,93.3,85.2,77.3,78.1,74.0,70.3,81,70,59,29.81,29.71,2,0,2,0.00
2013-6-26,92.4,82.0,77.5,78.8,73.9,71.8,85,77,61,29.75,29.67,5,0,5,0.00
2013-6-27,94.2,79.3,74.1,79.3,72.6,69.7,88,81,60,29.72,29.60,2,0,2,0.00
2013-6-28,98.2,84.2,75.3,77.5,73.3,69.4,84,71,49,29.65,29.51,0,0,0,0.04
2013-6-29,95.9,82.0,75.3,78.3,72.8,69.3,84,74,53,29.58,29.47,3,0,3,1.06
2013-6-30,88.8,78.8,75.3,79.2,73.2,70.6,88,83,68,29.60,29.50,8,0,8,0.55
2013-7-1,90.3,78.9,75.5,79.4,73.1,70.6,88,83,66,29.71,29.56,7,0,7,0.10
2013-7-2,88.1,76.9,75.0,79.9,72.5,70.9,89,86,75,29.76,29.64,8,0,8,0.02
2013-7-3,91.5,83.4,75.3,79.2,75.3,71.5,90,77,64,29.81,29.73,13,1,13,0.02
2013-7-4,91.4,83.1,76.1,77.5,74.5,70.9,87,76,63,29.83,29.75,9,2,9,0.04
2013-7-5,92.4,84.6,77.9,77.5,74.2,71.2,83,72,60,29.82,29.73,12,1,12,0.00
2013-7-6,92.8,84.4,77.3,77.4,73.8,70.6,82,71,60,29.79,29.71,10,0,10,0.00
2013-7-7,93.0,83.9,76.6,77.9,74.2,71.0,85,73,61,29.79,29.71,4,0,4,0.00
2013-7-8,91.5,84.0,76.6,78.5,74.0,41.3,86,72,61,29.83,29.75,3,0,3,0.20
2013-7-9,88.5,81.6,76.8,75.8,72.8,70.9,85,75,62,29.84,29.72,0,0,0,0.08
2013-7-10,91.9,79.0,75.2,77.3,71.7,69.8,85,79,59,29.75,29.66,2,0,2,0.00
2013-7-11,90.3,80.2,75.7,77.8,72.8,69.5,84,78,66,29.68,29.60,1,0,1,0.45
2013-7-12,94.1,77.1,72.5,80.1,70.7,3.4,88,81,6,29.63,29.53,0,0,0,0.02
2013-7-13,91.0,80.4,73.9,78.6,72.5,69.1,87,77,66,29.66,29.58,0,0,0,0.00
2013-7-14,88.8,77.8,72.3,77.1,71.8,26.2,87,82,67,29.77,29.62,0,0,0,0.55
2013-7-15,87.6,79.3,71.7,77.2,72.4,68.2,91,80,68,29.78,29.69,33,0,33,0.00
2013-7-16,87.4,78.3,75.3,76.2,71.6,69.7,86,80,68,29.84,29.73,6,0,6,0.24
2013-7-17,86.5,78.5,74.1,76.1,72.7,70.5,89,83,68,29.81,29.72,0,0,0,0.16
2013-7-18,89.6,79.2,73.7,77.8,72.7,69.4,89,81,64,29.80,29.72,0,0,0,0.10
2013-7-19,91.0,81.4,73.9,79.6,74.2,69.4,89,79,66,29.79,29.70,6,0,6,0.00
2013-7-20,80.6,78.5,77.5,73.7,73.1,72.7,87,84,80,29.78,29.71,0,0,0,0.00
2013-7-22,94.6,78.5,74.1,80.5,71.5,67.1,86,80,58,29.80,29.72,5,0,5,0.00
2013-7-23,95.5,85.1,76.4,79.5,74.5,71.2,86,72,53,29.76,29.62,3,0,3,0.00
2013-7-24,94.6,83.3,76.6,77.5,74.1,69.6,85,74,55,29.67,29.56,7,0,7,0.00
2013-7-25,87.8,80.4,76.1,77.4,73.6,71.1,86,80,69,29.66,29.55,3,0,3,0.04
2013-7-26,89.7,81.4,75.3,78.3,74.1,25.4,88,79,65,29.67,29.60,0,0,0,0.04
2013-7-27,94.8,84.3,76.2,80.3,75.4,72.1,89,75,56,29.65,29.57,1,0,1,0.00
2013-7-28,91.7,81.7,77.3,79.8,73.8,70.4,86,77,65,29.73,29.60,4,0,4,0.17
2013-7-29,95.0,83.3,74.1,80.2,74.3,69.3,87,75,61,29.81,29.68,3,0,3,0.00
2013-7-30,92.1,84.4,76.8,79.8,75.7,71.8,88,76,63,29.83,29.76,0,0,0,0.00
2013-7-31,94.6,85.7,78.0,79.2,75.4,72.3,87,72,56,29.78,29.67,12,0,12,0.00
2013-8-1,94.8,83.8,76.8,78.1,74.0,70.5,84,73,55,29.73,29.61,5,0,5,0.00
2013-8-2,88.8,80.7,77.1,76.8,72.7,71.2,85,77,62,29.69,29.59,1,0,1,0.00
2013-8-3,82.5,78.7,75.9,76.6,73.1,71.3,86,83,79,29.78,29.67,6,0,6,0.00
2013-8-4,95.7,81.0,74.3,80.9,74.4,70.6,90,81,59,29.76,29.64,9,0,9,0.24
2013-8-5,94.8,81.3,76.2,81.5,74.5,71.2,89,80,64,29.69,29.58,0,0,0,0.10
2013-8-6,93.9,82.8,74.1,80.9,75.3,38.2,89,79,63,29.64,29.55,0,0,0,0.00
2013-8-7,93.7,87.1,77.9,80.0,76.5,73.4,87,71,59,29.65,29.57,5,0,5,0.00
2013-8-8,94.8,83.4,79.1,79.3,74.2,72.7,83,74,57,29.70,29.60,7,0,7,0.00
2013-8-9,93.5,85.6,79.7,77.9,74.3,71.3,81,69,55,29.74,29.63,8,0,8,0.00
2013-8-10,95.1,85.8,77.5,78.6,74.7,71.2,85,70,56,29.79,29.71,10,0,10,0.00
2013-8-11,95.1,85.8,78.9,78.6,74.9,71.7,84,71,58,29.81,29.73,4,0,4,0.00
2013-8-12,93.3,84.0,75.3,77.8,73.5,69.8,86,71,59,29.78,29.68,86,0,86,0.00
2013-8-13,95.9,85.1,77.5,80.0,74.6,0.0,84,71,57,29.73,29.60,13,0,13,0.00
2013-8-14,95.9,86.1,77.5,78.8,74.2,71.3,83,69,53,29.67,29.58,7,0,7,0.00
2013-8-15,93.0,87.0,77.7,77.9,75.5,70.0,82,69,60,29.71,0.00,3,1,3,0.00
2013-8-16,95.5,85.7,78.4,79.8,75.6,72.5,84,73,59,29.72,29.63,7,0,7,0.00
2013-8-17,95.1,86.5,79.5,80.1,76.3,73.8,85,72,58,29.74,29.66,16,0,16,0.00
2013-8-18,94.1,86.1,79.5,79.0,75.5,72.7,81,71,59,29.76,29.67,7,0,7,0.00
2013-8-19,94.6,86.2,35.6,78.9,75.6,23.1,84,71,60,29.74,29.63,6,0,6,0.00
2013-8-20,95.5,86.3,78.8,78.8,75.4,64.1,82,71,56,29.75,29.65,6,0,6,0.00
2013-8-21,92.1,81.6,78.6,79.6,74.5,72.6,84,80,66,29.76,29.68,10,0,10,0.06
2013-8-22,92.4,80.5,77.1,79.4,74.5,72.8,88,82,64,29.74,29.64,0,0,0,0.00
2013-8-23,91.2,81.6,78.0,79.4,74.6,72.3,86,80,64,29.68,29.60,2,0,2,0.00
2013-8-24,92.8,83.3,77.1,78.8,74.9,71.9,86,76,63,29.75,29.64,1,0,1,0.00
2013-8-25,90.1,82.5,77.5,77.3,74.1,0.0,87,76,62,29.81,29.71,0,0,0,0.00
2013-8-26,91.9,83.6,76.4,76.6,73.7,71.5,87,73,58,29.78,29.67,0,0,22,0.00
2013-8-27,87.6,80.6,74.1,77.7,71.8,69.0,86,75,62,29.71,29.64,0,0,0,0.00
2013-8-28,91.5,82.9,75.7,76.3,72.9,69.8,86,73,61,29.70,29.63,0,0,0,0.00
2013-8-29,93.0,79.4,74.4,76.9,71.9,69.6,86,79,57,29.70,29.59,0,0,0,0.00
2013-8-30,91.4,83.3,76.6,79.4,73.4,67.1,86,73,57,29.66,29.56,0,0,0,0.00
2013-8-31,95.5,83.5,77.1,79.1,73.6,69.1,83,73,55,29.65,29.55,5,0,5,0.00
2013-9-1,92.8,80.6,75.0,78.4,72.0,-5.2,84,75,61,29.66,29.59,0,0,0,0.00
2013-9-2,92.6,79.2,72.5,78.8,72.1,67.7,87,79,62,29.69,29.57,8,0,8,0.08
2013-9-3,91.4,79.0,74.1,78.8,71.9,56.0,89,80,42,29.69,29.60,43,0,43,0.00
2013-9-4,93.9,82.4,76.8,78.9,74.6,71.2,86,78,60,29.74,29.63,0,0,0,0.00
2013-9-5,93.7,85.0,80.2,79.8,75.9,73.8,83,75,62,29.75,29.66,0,0,0,0.00
2013-9-6,92.3,82.6,77.7,77.6,75.1,71.9,85,79,62,29.70,29.60,0,0,0,0.00
2013-9-7,90.1,79.7,76.2,76.8,73.1,62.1,87,81,57,29.64,29.57,0,0,0,0.00
2013-9-8,91.2,80.4,74.1,76.8,72.0,67.2,87,76,61,29.61,29.53,0,0,0,0.00
2013-9-9,91.0,81.9,74.8,76.7,72.4,69.3,84,74,61,29.67,29.57,0,0,0,0.00
2013-9-10,89.9,82.3,79.1,75.6,72.2,69.7,75,72,61,29.73,29.63,5,0,5,0.00
2013-9-11,80.2,79.1,77.9,74.2,72.1,69.9,84,79,74,29.71,29.65,0,0,0,0.00
2013-9-17,88.1,80.1,74.6,79.0,73.8,70.8,89,81,69,29.71,29.61,0,0,0,0.00
2013-9-18,89.2,81.2,75.9,77.7,74.0,59.9,88,79,66,29.68,29.60,2,0,2,0.00
2013-9-19,84.7,78.9,76.8,76.7,72.5,68.7,87,81,71,29.69,29.60,1,0,1,0.00
2013-9-20,87.4,80.6,73.2,70.3,68.4,-27.7,81,67,54,29.68,29.56,0,0,0,0.00
2013-9-21,85.2,80.0,72.5,73.8,70.1,66.9,85,72,65,29.59,29.47,1,0,1,0.00
2013-9-22,92.3,82.3,74.1,76.8,72.1,67.6,85,72,55,29.52,29.41,4,0,4,0.00
2013-9-23,88.8,80.2,75.9,77.9,73.3,70.7,86,80,69,29.60,29.50,0,0,0,0.00
2013-9-24,87.9,79.6,75.3,80.5,74.8,70.1,90,86,73,29.62,29.51,8,0,8,0.00
2013-9-25,85.2,78.5,73.5,75.8,71.0,68.9,88,78,64,29.54,29.45,4,0,4,0.00
2013-9-26,89.6,80.5,74.8,78.4,73.6,70.0,89,80,64,29.53,29.42,0,0,0,0.02
2013-9-27,86.1,78.6,71.7,75.3,70.9,67.6,89,78,63,29.60,29.48,0,0,0,0.00
2013-9-28,86.5,76.4,73.2,75.1,70.4,67.4,89,82,62,29.64,29.55,0,0,0,0.02
2013-9-29,86.3,79.4,73.0,73.4,69.4,66.9,84,72,61,29.63,29.55,1,0,1,0.00
2013-9-30,89.7,79.2,71.2,75.2,70.4,66.7,87,75,61,29.68,29.56,0,0,0,0.00
2013-10-1,78.0,74.6,72.3,68.6,67.4,66.7,84,78,72,29.68,29.62,0,0,0,0.00
2013-10-5,88.8,83.5,73.9,74.2,72.3,69.1,86,70,58,29.69,29.61,0,0,0,0.00
2013-10-6,90.6,81.7,74.4,76.0,72.0,68.5,84,73,61,29.63,29.53,0,0,0,0.00
2013-10-7,90.1,78.5,74.4,75.6,71.0,68.9,86,78,59,29.55,29.47,0,0,0,0.00
2013-10-8,89.7,77.9,73.9,75.3,71.7,68.4,89,82,56,29.58,29.47,0,0,0,0.00
2013-10-9,84.3,78.2,74.1,74.4,71.2,69.2,89,79,68,29.64,29.54,0,0,0,0.00
2013-10-10,84.7,79.5,69.0,72.6,69.0,63.8,88,71,61,29.70,29.62,0,0,0,0.00
2013-10-11,85.2,75.8,66.7,69.1,64.6,36.0,85,70,27,29.70,29.60,0,0,0,0.00
2013-10-12,87.6,77.2,69.8,70.8,66.8,64.2,85,71,53,29.70,29.61,7,0,7,0.00
2013-10-13,85.2,76.3,67.8,67.3,64.3,62.1,83,68,49,29.73,29.63,0,0,0,0.00
2013-10-14,84.3,76.3,69.9,71.8,66.9,63.5,86,73,62,29.68,29.58,0,0,0,0.00
2013-10-15,84.9,73.5,69.6,73.0,67.3,65.2,88,81,64,29.64,29.54,0,0,0,0.00
2013-10-16,84.5,76.6,70.7,79.2,69.6,66.7,88,79,68,29.62,29.55,0,0,0,0.00
2013-10-17,87.6,77.9,70.7,74.7,69.9,66.1,87,77,63,31.26,29.55,0,0,0,0.00
2013-10-18,87.8,77.2,71.4,99.9,70.8,66.3,87,75,65,29.65,29.56,0,0,0,0.00
2013-10-19,88.8,80.6,72.6,76.0,71.6,67.4,86,74,65,29.62,29.53,0,0,0,0.00
2013-10-20,90.1,80.7,75.2,77.3,72.9,40.3,86,77,27,29.62,29.53,0,0,0,0.00
2013-10-21,88.3,80.3,74.4,78.8,72.9,69.6,85,78,68,29.65,29.55,0,0,0,0.00
2013-10-22,92.1,83.5,77.1,76.8,73.1,71.0,85,72,53,29.62,29.47,0,0,0,0.00
2013-10-23,83.1,79.5,73.9,72.2,69.4,65.0,86,72,63,29.63,29.49,0,0,0,0.00
2013-10-24,73.9,67.4,65.8,65.5,57.1,55.4,76,69,65,29.78,29.62,0,0,0,0.00
2013-10-25,79.5,71.3,64.7,67.8,61.0,57.5,83,71,59,29.84,29.76,0,0,0,0.00
2013-10-26,80.4,71.3,64.2,63.8,59.1,55.1,83,66,51,29.84,29.73,0,0,0,0.00
2013-10-27,79.7,69.6,61.5,63.9,59.3,55.2,85,70,54,29.77,29.70,0,0,0,0.00
2013-10-28,82.2,72.8,64.7,69.7,63.7,59.3,84,74,57,29.82,29.72,0,0,0,0.00
2013-10-29,84.3,75.4,68.3,68.7,65.2,61.7,83,71,57,29.85,29.76,0,0,0,0.00
2013-10-30,84.2,77.6,70.3,68.8,66.1,63.4,82,68,59,29.87,29.76,0,0,0,0.00
2013-10-31,85.2,77.2,72.1,71.2,66.1,62.6,76,69,60,29.78,29.66,2,0,2,0.00
2013-11-1,89.2,76.6,73.2,73.9,69.0,67.6,85,78,57,29.68,29.55,3,0,3,0.00
2013-11-3,78.2,74.9,72.3,60.4,55.4,53.7,57,51,44,29.72,29.63,0,0,0,0.00
2013-11-4,79.3,73.7,70.7,64.2,58.0,52.3,76,58,52,29.78,29.70,0,0,0,0.00
2013-11-5,82.0,76.6,72.3,70.6,67.4,63.8,79,73,66,29.79,29.71,0,0,0,0.00
2013-11-6,84.0,75.9,73.5,69.5,65.8,64.3,84,71,60,29.75,29.67,0,0,0,0.00
2013-11-7,82.5,73.3,70.5,72.2,67.6,65.4,89,83,65,29.69,29.60,2,0,2,0.00
2013-11-8,78.9,73.8,68.9,69.8,66.8,64.3,88,79,70,29.74,29.62,39,0,39,0.00
2013-11-9,80.7,76.3,73.5,69.6,67.4,65.9,77,74,68,29.82,29.72,0,0,0,0.00
2013-11-10,81.1,75.3,70.3,70.4,67.0,64.8,85,76,65,29.81,29.73,0,0,0,0.00
2013-11-11,82.0,74.5,69.0,72.1,67.8,65.2,89,80,69,29.81,29.73,0,0,0,0.00
2013-11-12,81.5,73.2,68.5,71.5,66.7,64.0,89,80,67,29.76,29.65,0,0,0,0.00
2013-11-13,71.9,69.0,66.7,65.0,61.7,59.2,84,78,74,29.82,29.68,0,0,0,0.00
2013-11-14,71.2,69.5,66.0,59.7,56.1,0.0,67,63,60,29.88,29.82,0,0,0,0.00
2013-11-15,74.3,71.8,68.9,66.4,62.3,58.5,77,72,65,29.83,29.74,1,0,1,0.00
2013-11-16,82.7,76.1,72.1,69.7,66.9,63.8,84,74,62,29.77,29.68,9,0,9,0.00
2013-11-17,84.3,77.7,72.8,72.1,69.6,67.0,85,76,65,29.75,29.66,152,6,152,0.00
2013-11-18,84.3,76.9,71.2,73.6,69.9,66.3,87,79,66,29.68,29.58,0,0,0,0.00
2013-11-19,78.9,73.9,70.8,74.1,69.0,66.2,88,85,71,29.60,29.52,0,0,0,0.00
2013-11-20,78.0,74.5,72.1,72.1,69.9,49.0,88,86,44,29.75,29.63,0,0,0,0.08
2013-11-21,80.4,73.7,72.5,73.5,69.5,68.4,89,87,77,29.83,29.73,1,0,1,0.04
2013-11-22,80.4,76.7,72.5,70.0,67.7,62.6,83,74,66,29.85,29.76,0,0,0,0.00
2013-11-23,82.2,76.6,68.7,70.6,66.5,41.7,84,71,65,29.76,29.65,0,0,0,0.00
2013-11-24,75.9,69.8,66.9,66.6,62.8,57.5,89,79,68,29.86,29.65,0,0,0,0.00
2013-11-25,74.4,70.5,68.5,65.4,60.3,0.0,83,70,62,29.89,29.73,33,0,33,0.00
2013-11-26,82.2,76.0,70.8,72.8,69.3,64.7,85,80,71,29.73,29.44,14,0,14,0.00
2013-11-27,75.5,69.6,53.4,70.9,61.1,45.7,88,75,58,29.80,29.40,7,0,7,0.00
2013-11-28,68.7,57.2,44.9,58.0,48.9,38.1,79,74,63,29.94,29.80,33,0,33,0.00
2013-11-29,75.5,67.6,58.1,61.4,57.4,52.3,84,71,58,29.96,29.88,0,0,0,0.00
2013-11-30,77.0,68.9,61.8,67.5,61.5,57.2,90,78,64,29.90,29.80,0,0,0,0.00
2013-12-1,70.8,68.2,65.4,67.4,64.4,62.1,90,88,82,29.80,29.62,0,0,0,0.00
2013-12-2,70.3,66.0,62.4,64.4,61.4,56.8,91,85,75,29.62,29.47,0,0,0,0.00
2013-12-3,75.7,68.8,63.6,65.9,61.6,57.9,88,79,65,29.64,29.55,0,0,0,0.00
2013-12-4,81.6,67.9,31.8,69.2,59.0,24.8,79,73,63,29.75,29.61,0,0,0,0.00
2013-12-5,80.4,72.7,64.4,70.8,66.0,59.8,87,80,71,29.84,29.75,0,0,0,0.00
2013-12-6,79.5,73.7,69.6,73.9,68.1,0.0,89,83,76,29.87,29.77,0,0,0,0.04
2013-12-7,86.0,68.6,65.4,79.9,63.4,61.1,87,84,71,29.90,29.82,0,0,0,0.00
2013-12-8,80.7,74.2,69.6,71.0,67.6,64.6,86,80,70,29.89,29.79,0,0,0,0.00
2013-12-9,82.2,74.0,67.6,72.3,66.7,62.4,88,79,66,29.86,29.76,0,0,0,0.00
2013-12-10,83.1,74.1,64.7,73.8,65.1,59.8,84,74,59,29.82,29.73,0,0,0,0.00
2013-12-11,81.1,75.1,69.2,72.0,68.7,65.0,87,81,72,29.89,29.80,0,0,0,0.00
2013-12-12,69.9,68.1,66.3,63.1,57.7,53.9,80,70,61,29.91,29.85,0,0,0,0.00
2013-12-13,75.5,70.7,66.2,61.5,57.8,53.8,73,64,58,29.90,29.78,0,0,0,0.00
2013-12-14,79.7,73.1,70.5,70.7,65.6,61.4,79,78,73,29.78,29.64,0,0,0,0.00
2013-12-15,75.3,71.3,69.4,72.2,66.9,63.5,91,86,78,29.65,29.58,0,0,0,0.02
2013-12-16,69.6,64.5,55.7,63.5,58.6,50.3,82,81,74,29.85,29.65,0,0,0,0.02
2013-12-17,74.1,63.1,54.1,63.3,55.9,49.1,90,78,61,29.86,29.78,0,0,0,0.00
2013-12-18,69.8,60.2,54.1,56.6,51.2,34.0,85,73,27,29.91,29.82,0,0,0,0.00
2013-12-19,73.9,62.6,53.2,60.7,54.0,45.7,83,74,62,29.90,29.83,0,0,0,0.00
2013-12-20,78.6,65.4,60.9,65.7,58.2,55.2,84,78,63,29.87,29.78,0,0,0,0.00
2013-12-21,78.6,74.6,68.5,72.4,69.1,63.3,88,83,81,29.82,29.74,0,0,0,0.00
2013-12-22,82.0,77.3,71.2,72.1,70.5,65.1,89,80,72,29.82,29.74,86,1,86,0.00
2013-12-23,83.1,75.3,70.5,73.8,69.5,66.1,89,83,71,29.85,29.76,0,0,0,0.02
2013-12-24,74.1,67.7,63.3,69.2,60.9,53.9,88,79,68,29.86,29.77,0,0,0,0.00
2013-12-25,74.8,68.7,66.9,61.8,57.8,55.8,71,68,63,29.86,29.80,33,0,33,0.00
2013-12-26,76.8,68.6,64.9,68.6,60.1,0.0,87,76,71,29.85,29.75,129,2,129,0.00
2013-12-27,77.7,69.2,67.6,69.2,65.0,63.9,89,87,72,29.86,29.78,0,0,0,0.00
2013-12-28,78.6,71.5,69.0,69.9,66.0,35.7,86,83,27,29.86,29.69,0,0,0,0.00
2013-12-29,80.6,74.2,71.7,74.1,69.8,68.0,90,86,76,29.70,29.55,0,0,0,0.00
2013-12-30,73.0,68.0,60.9,68.6,62.7,56.0,87,83,77,29.84,29.63,0,0,0,0.00
2013-12-31,72.1,67.8,61.8,61.8,59.4,56.6,84,75,68,29.94,29.79,2,0,2,0.00
2014-1-1,72.3,70.5,68.1,68.9,65.3,60.9,90,84,72,29.88,29.70,0,0,0,0.02
2014-1-2,81.3,72.4,65.3,71.0,66.2,62.3,92,82,67,29.70,29.49,0,0,0,0.02